createdAt,value
2022-11-19T00:00:18.668Z,0.00
2022-11-19T00:01:18.637Z,0.00
2022-11-19T00:02:18.684Z,0.00
2022-11-19T00:03:18.598Z,0.00
2022-11-19T00:04:18.594Z,0.00
2022-11-19T00:05:18.562Z,0.00
2022-11-19T00:06:26.226Z,0.00
2022-11-19T00:08:22.514Z,0.00
2022-11-19T00:09:22.469Z,0.00
2022-11-19T00:11:26.444Z,0.00
2022-11-19T00:12:26.397Z,0.00
2022-11-19T00:13:26.374Z,0.00
2022-11-19T00:14:26.357Z,0.00
2022-11-19T00:15:26.335Z,0.00
2022-11-19T00:16:26.320Z,0.00
2022-11-19T00:17:26.299Z,0.00
2022-11-19T00:18:26.280Z,0.00
2022-11-19T00:19:26.261Z,0.00
2022-11-19T00:20:26.243Z,0.00
2022-11-19T00:21:26.223Z,0.00
2022-11-19T00:22:26.205Z,0.00
2022-11-19T00:23:26.189Z,0.00
2022-11-19T00:24:26.166Z,0.00
2022-11-19T00:25:26.147Z,0.00
2022-11-19T00:26:26.128Z,0.00
2022-11-19T00:27:26.110Z,0.00
2022-11-19T00:28:26.089Z,0.00
2022-11-19T00:29:26.070Z,0.00
2022-11-19T00:30:46.915Z,0.00
2022-11-19T00:31:26.033Z,0.00
2022-11-19T00:32:26.014Z,0.00
2022-11-19T00:33:25.997Z,0.00
2022-11-19T00:34:25.975Z,0.00
2022-11-19T00:35:25.959Z,0.00
2022-11-19T00:36:25.958Z,0.00
2022-11-19T00:37:25.923Z,0.00
2022-11-19T00:38:25.904Z,0.00
2022-11-19T00:39:25.881Z,0.00
2022-11-19T00:40:25.865Z,0.00
2022-11-19T00:41:25.845Z,0.00
2022-11-19T00:42:25.823Z,0.00
2022-11-19T00:43:25.810Z,0.00
2022-11-19T00:44:25.786Z,0.00
2022-11-19T00:45:25.768Z,0.00
2022-11-19T00:46:25.749Z,0.00
2022-11-19T00:47:25.731Z,0.00
2022-11-19T00:48:25.711Z,0.00
2022-11-19T00:49:25.690Z,0.00
2022-11-19T00:50:25.676Z,0.00
2022-11-19T00:51:25.655Z,0.00
2022-11-19T00:52:25.636Z,0.00
2022-11-19T00:53:25.619Z,0.00
2022-11-19T00:54:25.597Z,0.00
2022-11-19T00:55:25.577Z,0.00
2022-11-19T00:56:25.558Z,0.00
2022-11-19T00:57:25.542Z,0.00
2022-11-19T00:58:25.519Z,0.00
2022-11-19T00:59:25.507Z,0.00
2022-11-19T01:00:25.480Z,0.00
2022-11-19T01:01:25.685Z,0.00
2022-11-19T01:02:25.446Z,0.00
2022-11-19T01:03:25.427Z,0.00
2022-11-19T01:04:25.407Z,0.00
2022-11-19T01:05:25.389Z,0.00
2022-11-19T01:06:25.368Z,0.00
2022-11-19T01:07:25.412Z,0.00
2022-11-19T01:08:25.330Z,0.00
2022-11-19T01:09:25.310Z,0.00
2022-11-19T01:10:25.291Z,0.00
2022-11-19T01:11:25.276Z,0.00
2022-11-19T01:12:25.256Z,0.00
2022-11-19T01:13:25.237Z,0.00
2022-11-19T01:14:25.217Z,0.00
2022-11-19T01:15:25.201Z,0.00
2022-11-19T01:16:25.182Z,0.00
2022-11-19T01:17:25.163Z,0.00
2022-11-19T01:18:25.145Z,0.00
2022-11-19T01:19:25.123Z,0.00
2022-11-19T01:20:25.161Z,0.00
2022-11-19T01:21:25.084Z,0.00
2022-11-19T01:22:25.065Z,0.00
2022-11-19T01:23:25.047Z,0.00
2022-11-19T01:24:25.029Z,0.00
2022-11-19T01:25:25.011Z,0.00
2022-11-19T01:26:24.990Z,0.00
2022-11-19T01:27:24.981Z,0.00
2022-11-19T01:28:24.954Z,0.00
2022-11-19T01:29:24.935Z,0.00
2022-11-19T01:30:24.916Z,0.00
2022-11-19T01:31:24.896Z,0.00
2022-11-19T01:32:24.879Z,0.00
2022-11-19T01:33:24.860Z,0.00
2022-11-19T01:34:24.837Z,0.00
2022-11-19T01:35:24.820Z,0.00
2022-11-19T01:36:24.801Z,0.00
2022-11-19T01:37:24.783Z,0.00
2022-11-19T01:38:24.764Z,0.00
2022-11-19T01:39:24.747Z,0.00
2022-11-19T01:40:24.725Z,0.00
2022-11-19T01:41:24.705Z,0.00
2022-11-19T01:42:24.691Z,0.00
2022-11-19T01:43:24.672Z,0.00
2022-11-19T01:44:24.650Z,0.00
2022-11-19T01:45:24.630Z,0.00
2022-11-19T01:46:24.611Z,0.00
2022-11-19T01:47:24.602Z,0.00
2022-11-19T01:48:24.573Z,0.00
2022-11-19T01:49:24.557Z,0.00
2022-11-19T01:50:24.535Z,0.00
2022-11-19T01:51:24.527Z,0.00
2022-11-19T01:52:24.499Z,0.00
2022-11-19T01:53:24.481Z,0.00
2022-11-19T01:54:24.462Z,0.00
2022-11-19T01:55:24.443Z,0.00
2022-11-19T01:56:24.423Z,0.00
2022-11-19T01:57:24.405Z,0.00
2022-11-19T01:58:24.392Z,0.00
2022-11-19T01:59:24.370Z,0.00
2022-11-19T02:00:24.352Z,0.00
2022-11-19T02:01:24.415Z,0.00
2022-11-19T02:02:24.311Z,0.00
2022-11-19T02:03:24.308Z,0.00
2022-11-19T02:04:24.274Z,0.00
2022-11-19T02:05:24.254Z,0.00
2022-11-19T02:06:24.233Z,0.00
2022-11-19T02:07:24.252Z,0.00
2022-11-19T02:08:24.198Z,0.00
2022-11-19T02:09:24.179Z,0.00
2022-11-19T02:10:24.159Z,0.00
2022-11-19T02:11:24.143Z,0.00
2022-11-19T02:12:24.124Z,0.00
2022-11-19T02:13:24.105Z,0.00
2022-11-19T02:14:24.084Z,0.00
2022-11-19T02:15:24.068Z,0.00
2022-11-19T02:16:24.046Z,0.00
2022-11-19T02:17:24.029Z,0.00
2022-11-19T02:18:24.010Z,0.00
2022-11-19T02:19:23.999Z,0.00
2022-11-19T02:20:23.974Z,0.00
2022-11-19T02:21:23.954Z,0.00
2022-11-19T02:22:23.932Z,0.00
2022-11-19T02:23:23.916Z,0.00
2022-11-19T02:24:23.897Z,0.00
2022-11-19T02:25:23.880Z,0.00
2022-11-19T02:26:23.857Z,0.00
2022-11-19T02:27:23.844Z,0.00
2022-11-19T02:28:23.819Z,0.00
2022-11-19T02:29:23.808Z,0.00
2022-11-19T02:30:23.781Z,0.00
2022-11-19T02:31:23.762Z,0.00
2022-11-19T02:32:23.747Z,0.00
2022-11-19T02:33:23.728Z,0.00
2022-11-19T02:34:23.706Z,0.00
2022-11-19T02:35:23.695Z,0.00
2022-11-19T02:36:23.666Z,0.00
2022-11-19T02:37:23.651Z,0.00
2022-11-19T02:38:23.650Z,0.00
2022-11-19T02:39:23.612Z,0.00
2022-11-19T02:40:23.602Z,0.00
2022-11-19T02:41:23.572Z,0.00
2022-11-19T02:42:23.553Z,0.00
2022-11-19T02:43:23.539Z,0.00
2022-11-19T02:44:23.517Z,0.00
2022-11-19T02:45:23.496Z,0.00
2022-11-19T02:46:23.477Z,0.00
2022-11-19T02:47:23.462Z,0.00
2022-11-19T02:48:23.439Z,0.00
2022-11-19T02:49:23.421Z,0.00
2022-11-19T02:50:23.402Z,0.00
2022-11-19T02:51:23.383Z,0.00
2022-11-19T02:52:23.361Z,0.00
2022-11-19T02:53:23.346Z,0.00
2022-11-19T02:54:23.322Z,0.00
2022-11-19T02:55:23.307Z,0.00
2022-11-19T02:56:23.288Z,0.00
2022-11-19T02:57:23.270Z,0.00
2022-11-19T02:58:23.247Z,0.00
2022-11-19T02:59:23.232Z,0.00
2022-11-19T03:00:23.210Z,0.00
2022-11-19T03:01:23.212Z,0.00
2022-11-19T03:02:23.172Z,0.00
2022-11-19T03:03:23.155Z,0.00
2022-11-19T03:04:23.133Z,0.00
2022-11-19T03:05:23.116Z,0.00
2022-11-19T03:06:23.094Z,0.00
2022-11-19T03:07:23.122Z,0.00
2022-11-19T03:08:23.058Z,0.00
2022-11-19T03:09:23.037Z,0.00
2022-11-19T03:10:23.024Z,0.00
2022-11-19T03:11:23.000Z,0.00
2022-11-19T03:12:22.975Z,0.00
2022-11-19T03:13:22.957Z,0.00
2022-11-19T03:14:22.940Z,0.00
2022-11-19T03:15:22.917Z,0.00
2022-11-19T03:16:22.899Z,0.00
2022-11-19T03:17:22.893Z,0.00
2022-11-19T03:18:22.861Z,0.00
2022-11-19T03:19:22.841Z,0.00
2022-11-19T03:20:22.821Z,0.00
2022-11-19T03:21:22.801Z,0.00
2022-11-19T03:22:22.784Z,0.00
2022-11-19T03:23:22.768Z,0.00
2022-11-19T03:24:22.741Z,0.00
2022-11-19T03:25:22.727Z,0.00
2022-11-19T03:26:22.701Z,0.00
2022-11-19T03:27:22.681Z,0.00
2022-11-19T03:28:22.660Z,0.00
2022-11-19T03:29:22.642Z,0.00
2022-11-19T03:30:22.621Z,0.00
2022-11-19T03:31:22.600Z,0.00
2022-11-19T03:32:22.580Z,0.00
2022-11-19T03:33:22.561Z,0.00
2022-11-19T03:34:22.540Z,0.00
2022-11-19T03:35:22.519Z,0.00
2022-11-19T03:36:22.499Z,0.00
2022-11-19T03:37:22.483Z,0.00
2022-11-19T03:38:22.458Z,0.00
2022-11-19T03:39:22.679Z,0.00
2022-11-19T03:40:22.417Z,0.00
2022-11-19T03:41:22.399Z,0.00
2022-11-19T03:42:22.383Z,0.00
2022-11-19T03:43:22.357Z,0.00
2022-11-19T03:44:22.337Z,0.00
2022-11-19T03:45:22.317Z,0.00
2022-11-19T03:46:22.297Z,0.00
2022-11-19T03:47:22.276Z,0.00
2022-11-19T03:48:22.255Z,0.00
2022-11-19T03:49:22.237Z,0.00
2022-11-19T03:50:22.211Z,0.00
2022-11-19T03:51:22.194Z,0.00
2022-11-19T03:52:22.170Z,0.00
2022-11-19T03:53:22.152Z,0.00
2022-11-19T03:54:22.131Z,0.00
2022-11-19T03:55:22.238Z,0.00
2022-11-19T03:56:22.089Z,0.00
2022-11-19T03:57:22.070Z,0.00
2022-11-19T03:58:22.047Z,0.00
2022-11-19T03:59:26.714Z,0.00
2022-11-19T04:00:22.008Z,0.00
2022-11-19T04:01:22.068Z,0.00
2022-11-19T04:02:21.967Z,0.00
2022-11-19T04:03:21.950Z,0.00
2022-11-19T04:04:21.924Z,0.00
2022-11-19T04:05:21.905Z,0.00
2022-11-19T04:06:21.883Z,0.00
2022-11-19T04:07:21.933Z,0.00
2022-11-19T04:08:21.839Z,0.00
2022-11-19T04:09:22.072Z,0.00
2022-11-19T04:10:21.797Z,0.00
2022-11-19T04:11:42.782Z,0.00
2022-11-19T04:12:21.765Z,0.00
2022-11-19T04:13:21.740Z,0.00
2022-11-19T04:14:21.717Z,0.00
2022-11-19T04:15:21.695Z,0.00
2022-11-19T04:16:21.678Z,0.00
2022-11-19T04:17:21.657Z,0.00
2022-11-19T04:18:21.634Z,0.00
2022-11-19T04:19:21.807Z,0.00
2022-11-19T04:20:21.593Z,0.00
2022-11-19T04:21:21.569Z,0.00
2022-11-19T04:22:21.549Z,0.00
2022-11-19T04:23:21.530Z,0.00
2022-11-19T04:24:21.509Z,0.00
2022-11-19T04:25:21.488Z,0.00
2022-11-19T04:26:21.467Z,0.00
2022-11-19T04:27:21.447Z,0.00
2022-11-19T04:28:21.428Z,0.00
2022-11-19T04:29:21.794Z,0.00
2022-11-19T04:30:21.382Z,0.00
2022-11-19T04:31:21.368Z,0.00
2022-11-19T04:32:21.337Z,0.00
2022-11-19T04:33:21.323Z,0.00
2022-11-19T04:34:21.295Z,0.00
2022-11-19T04:35:21.279Z,0.00
2022-11-19T04:36:21.255Z,0.00
2022-11-19T04:37:21.234Z,0.00
2022-11-19T04:38:21.211Z,0.00
2022-11-19T04:39:21.615Z,0.00
2022-11-19T04:40:21.171Z,0.00
2022-11-19T04:41:21.151Z,0.00
2022-11-19T04:42:21.130Z,0.00
2022-11-19T04:43:21.143Z,0.00
2022-11-19T04:44:21.085Z,0.00
2022-11-19T04:45:21.068Z,0.00
2022-11-19T04:46:21.042Z,0.00
2022-11-19T04:47:21.026Z,0.00
2022-11-19T04:48:21.002Z,0.00
2022-11-19T04:49:21.248Z,0.00
2022-11-19T04:50:20.959Z,0.00
2022-11-19T04:51:20.938Z,0.00
2022-11-19T04:52:20.918Z,0.00
2022-11-19T04:53:20.900Z,0.00
2022-11-19T04:54:20.875Z,0.00
2022-11-19T04:55:20.860Z,0.00
2022-11-19T04:56:20.833Z,0.00
2022-11-19T04:57:20.812Z,0.00
2022-11-19T04:58:20.791Z,0.00
2022-11-19T04:59:21.009Z,0.00
2022-11-19T05:00:20.751Z,0.00
2022-11-19T05:01:20.836Z,0.00
2022-11-19T05:02:20.712Z,0.00
2022-11-19T05:03:20.685Z,0.00
2022-11-19T05:04:20.666Z,0.00
2022-11-19T05:05:20.645Z,0.00
2022-11-19T05:06:20.622Z,0.00
2022-11-19T05:07:20.624Z,0.00
2022-11-19T05:08:20.581Z,0.00
2022-11-19T05:09:20.925Z,0.00
2022-11-19T05:10:20.539Z,0.00
2022-11-19T05:11:20.519Z,0.00
2022-11-19T05:12:20.497Z,0.00
2022-11-19T05:13:20.480Z,0.00
2022-11-19T05:14:20.456Z,0.00
2022-11-19T05:15:20.443Z,0.00
2022-11-19T05:16:20.411Z,0.00
2022-11-19T05:17:20.394Z,0.00
2022-11-19T05:18:20.370Z,0.00
2022-11-19T05:19:20.693Z,0.00
2022-11-19T05:20:20.345Z,0.00
2022-11-19T05:21:20.309Z,0.00
2022-11-19T05:22:20.288Z,0.00
2022-11-19T05:23:20.266Z,0.00
2022-11-19T05:24:20.246Z,0.00
2022-11-19T05:25:20.222Z,0.00
2022-11-19T05:26:20.205Z,0.00
2022-11-19T05:27:20.180Z,0.00
2022-11-19T05:28:32.823Z,0.00
2022-11-19T05:29:20.367Z,0.00
2022-11-19T05:30:20.117Z,0.00
2022-11-19T05:31:20.102Z,0.00
2022-11-19T05:32:20.075Z,0.00
2022-11-19T05:33:20.056Z,0.00
2022-11-19T05:34:20.057Z,0.00
2022-11-19T05:35:20.013Z,0.00
2022-11-19T05:36:19.989Z,0.00
2022-11-19T05:37:19.968Z,0.00
2022-11-19T05:38:19.949Z,0.00
2022-11-19T05:39:22.074Z,0.00
2022-11-19T05:40:19.903Z,0.00
2022-11-19T05:41:19.885Z,0.00
2022-11-19T05:42:19.863Z,0.00
2022-11-19T05:43:19.843Z,0.00
2022-11-19T05:44:19.819Z,0.00
2022-11-19T05:45:19.799Z,0.00
2022-11-19T05:46:19.774Z,0.00
2022-11-19T05:47:19.760Z,0.00
2022-11-19T05:48:19.732Z,0.00
2022-11-19T05:49:20.054Z,0.00
2022-11-19T05:50:19.688Z,0.00
2022-11-19T05:51:19.669Z,0.00
2022-11-19T05:52:19.646Z,0.00
2022-11-19T05:53:19.630Z,0.00
2022-11-19T05:54:19.635Z,0.00
2022-11-19T05:55:19.584Z,0.00
2022-11-19T05:56:19.560Z,0.00
2022-11-19T05:57:19.541Z,0.00
2022-11-19T05:58:19.517Z,0.00
2022-11-19T05:59:19.675Z,0.00
2022-11-19T06:00:19.476Z,0.00
2022-11-19T06:01:19.453Z,0.00
2022-11-19T06:02:19.442Z,0.00
2022-11-19T06:03:19.462Z,0.00
2022-11-19T06:04:19.391Z,0.00
2022-11-19T06:05:19.386Z,0.00
2022-11-19T06:06:19.350Z,0.00
2022-11-19T06:07:19.367Z,0.00
2022-11-19T06:08:19.304Z,0.00
2022-11-19T06:09:19.600Z,0.00
2022-11-19T06:10:19.261Z,0.00
2022-11-19T06:11:19.241Z,0.00
2022-11-19T06:12:19.218Z,0.00
2022-11-19T06:13:19.197Z,0.00
2022-11-19T06:14:19.182Z,0.00
2022-11-19T06:15:23.965Z,0.00
2022-11-19T06:16:26.315Z,0.00
2022-11-19T06:18:23.079Z,0.00
2022-11-19T06:19:23.212Z,0.00
2022-11-19T06:20:23.019Z,0.00
2022-11-19T06:21:22.992Z,0.00
2022-11-19T06:22:22.972Z,0.00
2022-11-19T06:23:22.949Z,4.00
2022-11-19T06:24:22.930Z,4.00
2022-11-19T06:25:22.906Z,0.00
2022-11-19T06:26:22.890Z,0.00
2022-11-19T06:27:22.864Z,0.00
2022-11-19T06:28:22.852Z,4.00
2022-11-19T06:29:22.966Z,4.00
2022-11-19T06:30:22.806Z,4.00
2022-11-19T06:31:22.777Z,4.00
2022-11-19T06:32:22.758Z,4.00
2022-11-19T06:33:22.732Z,4.00
2022-11-19T06:34:22.717Z,4.00
2022-11-19T06:35:22.693Z,4.00
2022-11-19T06:36:24.388Z,8.00
2022-11-19T06:37:22.646Z,4.00
2022-11-19T06:38:22.625Z,8.00
2022-11-19T06:39:23.046Z,12.00
2022-11-19T06:40:22.595Z,12.00
2022-11-19T06:41:22.563Z,8.00
2022-11-19T06:42:22.539Z,12.00
2022-11-19T06:43:22.522Z,16.00
2022-11-19T06:44:22.500Z,12.00
2022-11-19T06:45:22.475Z,16.00
2022-11-19T06:46:22.452Z,16.00
2022-11-19T06:47:22.431Z,16.00
2022-11-19T06:48:22.416Z,20.00
2022-11-19T06:49:22.681Z,20.00
2022-11-19T06:50:22.769Z,20.00
2022-11-19T06:51:22.344Z,20.00
2022-11-19T06:52:22.324Z,16.00
2022-11-19T06:53:22.298Z,20.00
2022-11-19T06:54:22.285Z,16.00
2022-11-19T06:55:22.257Z,20.00
2022-11-19T06:56:22.237Z,20.00
2022-11-19T06:57:22.212Z,24.00
2022-11-19T06:58:22.192Z,24.00
2022-11-19T06:59:22.389Z,24.00
2022-11-19T07:00:22.149Z,28.00
2022-11-19T07:01:22.203Z,24.00
2022-11-19T07:02:22.110Z,20.00
2022-11-19T07:03:22.087Z,20.00
2022-11-19T07:04:22.062Z,24.00
2022-11-19T07:05:22.040Z,28.00
2022-11-19T07:06:22.027Z,28.00
2022-11-19T07:07:22.037Z,28.00
2022-11-19T07:08:21.981Z,24.00
2022-11-19T07:09:22.194Z,24.00
2022-11-19T07:10:21.932Z,28.00
2022-11-19T07:11:21.910Z,28.00
2022-11-19T07:12:21.886Z,28.00
2022-11-19T07:13:21.871Z,28.00
2022-11-19T07:14:21.845Z,32.00
2022-11-19T07:15:21.822Z,32.00
2022-11-19T07:16:21.801Z,32.00
2022-11-19T07:17:21.784Z,32.00
2022-11-19T07:18:21.760Z,32.00
2022-11-19T07:19:22.007Z,32.00
2022-11-19T07:20:21.717Z,32.00
2022-11-19T07:21:21.694Z,32.00
2022-11-19T07:22:21.674Z,40.00
2022-11-19T07:23:21.648Z,44.00
2022-11-19T07:24:21.632Z,52.00
2022-11-19T07:25:21.604Z,60.00
2022-11-19T07:26:21.583Z,64.00
2022-11-19T07:27:21.563Z,68.00
2022-11-19T07:28:21.540Z,68.00
2022-11-19T07:29:22.004Z,64.00
2022-11-19T07:30:21.498Z,60.00
2022-11-19T07:31:21.477Z,56.00
2022-11-19T07:32:21.452Z,56.00
2022-11-19T07:33:21.430Z,56.00
2022-11-19T07:34:21.415Z,56.00
2022-11-19T07:35:21.389Z,60.00
2022-11-19T07:36:21.367Z,64.00
2022-11-19T07:37:21.361Z,68.00
2022-11-19T07:38:21.322Z,68.00
2022-11-19T07:39:21.702Z,72.00
2022-11-19T07:40:21.282Z,68.00
2022-11-19T07:41:21.258Z,60.00
2022-11-19T07:42:21.235Z,64.00
2022-11-19T07:43:21.216Z,64.00
2022-11-19T07:44:21.198Z,60.00
2022-11-19T07:45:21.175Z,64.00
2022-11-19T07:46:21.148Z,64.00
2022-11-19T07:47:21.140Z,76.00
2022-11-19T07:48:21.105Z,84.00
2022-11-19T07:49:21.458Z,88.00
2022-11-19T07:50:21.061Z,112.00
2022-11-19T07:51:21.041Z,136.00
2022-11-19T07:52:21.023Z,148.00
2022-11-19T07:53:20.997Z,176.00
2022-11-19T07:54:20.976Z,180.00
2022-11-19T07:55:20.958Z,168.00
2022-11-19T07:56:20.984Z,160.00
2022-11-19T07:57:24.575Z,148.00
2022-11-19T07:58:20.892Z,136.00
2022-11-19T07:59:21.240Z,128.00
2022-11-19T08:00:20.845Z,124.00
2022-11-19T08:01:20.967Z,124.00
2022-11-19T08:02:20.800Z,132.00
2022-11-19T08:03:20.781Z,140.00
2022-11-19T08:04:20.758Z,144.00
2022-11-19T08:05:20.736Z,148.00
2022-11-19T08:06:20.716Z,144.00
2022-11-19T08:07:20.745Z,144.00
2022-11-19T08:08:20.670Z,148.00
2022-11-19T08:09:21.051Z,144.00
2022-11-19T08:10:20.631Z,140.00
2022-11-19T08:11:20.612Z,136.00
2022-11-19T08:12:20.595Z,140.00
2022-11-19T08:13:20.563Z,144.00
2022-11-19T08:14:20.540Z,152.00
2022-11-19T08:15:20.521Z,160.00
2022-11-19T08:16:20.498Z,172.00
2022-11-19T08:17:20.477Z,168.00
2022-11-19T08:18:20.454Z,164.00
2022-11-19T08:19:20.724Z,160.00
2022-11-19T08:20:20.409Z,168.00
2022-11-19T08:21:20.390Z,164.00
2022-11-19T08:22:20.410Z,164.00
2022-11-19T08:23:20.346Z,156.00
2022-11-19T08:24:20.823Z,156.00
2022-11-19T08:25:20.301Z,144.00
2022-11-19T08:26:20.279Z,140.00
2022-11-19T08:27:20.267Z,132.00
2022-11-19T08:28:20.238Z,116.00
2022-11-19T08:29:20.213Z,108.00
2022-11-19T08:30:20.195Z,100.00
2022-11-19T08:31:20.184Z,108.00
2022-11-19T08:32:20.147Z,108.00
2022-11-19T08:33:20.133Z,108.00
2022-11-19T08:34:20.307Z,112.00
2022-11-19T08:35:20.084Z,116.00
2022-11-19T08:36:20.072Z,116.00
2022-11-19T08:37:20.040Z,120.00
2022-11-19T08:38:20.024Z,120.00
2022-11-19T08:39:20.032Z,132.00
2022-11-19T08:40:19.977Z,132.00
2022-11-19T08:41:19.952Z,136.00
2022-11-19T08:42:19.937Z,136.00
2022-11-19T08:43:19.915Z,140.00
2022-11-19T08:44:20.087Z,140.00
2022-11-19T08:45:21.034Z,136.00
2022-11-19T08:46:19.846Z,140.00
2022-11-19T08:47:19.823Z,136.00
2022-11-19T08:48:19.793Z,136.00
2022-11-19T08:49:19.780Z,140.00
2022-11-19T08:50:19.754Z,144.00
2022-11-19T08:51:19.733Z,148.00
2022-11-19T08:52:19.712Z,156.00
2022-11-19T08:53:19.689Z,164.00
2022-11-19T08:54:19.959Z,172.00
2022-11-19T08:55:19.645Z,180.00
2022-11-19T08:56:19.629Z,196.00
2022-11-19T08:57:19.600Z,212.00
2022-11-19T08:58:19.574Z,228.00
2022-11-19T08:59:19.858Z,232.00
2022-11-19T09:00:19.531Z,236.00
2022-11-19T09:01:19.555Z,228.00
2022-11-19T09:02:19.486Z,216.00
2022-11-19T09:03:19.465Z,216.00
2022-11-19T09:04:19.661Z,220.00
2022-11-19T09:05:19.424Z,236.00
2022-11-19T09:06:19.400Z,256.00
2022-11-19T09:07:19.475Z,272.00
2022-11-19T09:08:19.354Z,276.00
2022-11-19T09:09:19.333Z,260.00
2022-11-19T09:10:19.321Z,240.00
2022-11-19T09:11:19.292Z,224.00
2022-11-19T09:12:19.271Z,196.00
2022-11-19T09:13:19.244Z,184.00
2022-11-19T09:14:19.621Z,180.00
2022-11-19T09:15:19.202Z,180.00
2022-11-19T09:16:19.182Z,188.00
2022-11-19T09:17:19.160Z,192.00
2022-11-19T09:18:19.141Z,188.00
2022-11-19T09:19:19.117Z,188.00
2022-11-19T09:20:19.096Z,180.00
2022-11-19T09:21:19.070Z,172.00
2022-11-19T09:22:19.047Z,160.00
2022-11-19T09:23:19.026Z,152.00
2022-11-19T09:24:19.463Z,148.00
2022-11-19T09:25:18.980Z,140.00
2022-11-19T09:26:18.964Z,136.00
2022-11-19T09:27:18.938Z,128.00
2022-11-19T09:28:18.917Z,124.00
2022-11-19T09:29:18.894Z,116.00
2022-11-19T09:30:18.875Z,116.00
2022-11-19T09:31:18.848Z,112.00
2022-11-19T09:32:23.924Z,120.00
2022-11-19T09:33:18.805Z,132.00
2022-11-19T09:34:19.198Z,136.00
2022-11-19T09:35:18.761Z,136.00
2022-11-19T09:36:18.740Z,140.00
2022-11-19T09:37:18.717Z,140.00
2022-11-19T09:38:18.694Z,128.00
2022-11-19T09:39:18.672Z,132.00
2022-11-19T09:40:18.647Z,136.00
2022-11-19T09:41:18.631Z,140.00
2022-11-19T09:42:18.605Z,136.00
2022-11-19T09:43:18.587Z,124.00
2022-11-19T09:44:18.861Z,120.00
2022-11-19T09:45:18.546Z,132.00
2022-11-19T09:46:18.520Z,132.00
2022-11-19T09:47:18.496Z,136.00
2022-11-19T09:48:18.476Z,128.00
2022-11-19T09:49:18.454Z,124.00
2022-11-19T09:50:18.428Z,120.00
2022-11-19T09:51:18.412Z,116.00
2022-11-19T09:52:18.388Z,120.00
2022-11-19T09:53:18.365Z,120.00
2022-11-19T09:54:18.736Z,128.00
2022-11-19T09:55:18.327Z,136.00
2022-11-19T09:56:18.298Z,144.00
2022-11-19T09:57:18.279Z,144.00
2022-11-19T09:58:18.255Z,148.00
2022-11-19T09:59:18.235Z,144.00
2022-11-19T10:00:18.209Z,132.00
2022-11-19T10:01:18.192Z,128.00
2022-11-19T10:02:18.168Z,132.00
2022-11-19T10:03:18.216Z,136.00
2022-11-19T10:04:18.484Z,136.00
2022-11-19T10:05:18.100Z,136.00
2022-11-19T10:06:18.077Z,128.00
2022-11-19T10:07:18.113Z,124.00
2022-11-19T10:08:18.044Z,128.00
2022-11-19T10:09:18.016Z,128.00
2022-11-19T10:10:17.990Z,128.00
2022-11-19T10:11:17.971Z,124.00
2022-11-19T10:12:17.950Z,116.00
2022-11-19T10:13:17.933Z,112.00
2022-11-19T10:14:18.196Z,108.00
2022-11-19T10:15:17.885Z,104.00
2022-11-19T10:16:17.860Z,112.00
2022-11-19T10:17:17.840Z,116.00
2022-11-19T10:18:17.822Z,116.00
2022-11-19T10:19:17.850Z,116.00
2022-11-19T10:20:17.774Z,112.00
2022-11-19T10:21:17.753Z,108.00
2022-11-19T10:22:17.723Z,100.00
2022-11-19T10:23:17.704Z,96.00
2022-11-19T10:24:18.445Z,100.00
2022-11-19T10:25:17.662Z,96.00
2022-11-19T10:26:17.638Z,92.00
2022-11-19T10:27:17.617Z,92.00
2022-11-19T10:28:17.592Z,96.00
2022-11-19T10:29:18.076Z,100.00
2022-11-19T10:30:17.575Z,100.00
2022-11-19T10:31:17.529Z,112.00
2022-11-19T10:32:17.506Z,124.00
2022-11-19T10:33:17.484Z,144.00
2022-11-19T10:34:17.464Z,156.00
2022-11-19T10:35:17.442Z,164.00
2022-11-19T10:36:17.417Z,168.00
2022-11-19T10:37:17.394Z,188.00
2022-11-19T10:38:17.371Z,196.00
2022-11-19T10:39:17.719Z,208.00
2022-11-19T10:40:17.330Z,220.00
2022-11-19T10:41:17.309Z,220.00
2022-11-19T10:42:17.281Z,220.00
2022-11-19T10:43:20.721Z,216.00
2022-11-19T10:44:17.669Z,216.00
2022-11-19T10:45:17.218Z,216.00
2022-11-19T10:46:17.193Z,216.00
2022-11-19T10:47:17.173Z,212.00
2022-11-19T10:48:17.152Z,232.00
2022-11-19T10:49:17.547Z,240.00
2022-11-19T10:50:17.168Z,248.00
2022-11-19T10:51:17.083Z,252.00
2022-11-19T10:52:17.059Z,248.00
2022-11-19T10:53:17.041Z,256.00
2022-11-19T10:54:17.017Z,248.00
2022-11-19T10:55:16.997Z,244.00
2022-11-19T10:56:16.982Z,256.00
2022-11-19T10:57:16.954Z,272.00
2022-11-19T10:58:16.930Z,300.00
2022-11-19T10:59:16.912Z,328.00
2022-11-19T11:00:16.972Z,368.00
2022-11-19T11:01:16.916Z,404.00
2022-11-19T11:02:16.841Z,396.00
2022-11-19T11:03:16.820Z,416.00
2022-11-19T11:04:16.798Z,420.00
2022-11-19T11:05:16.777Z,456.00
2022-11-19T11:06:16.752Z,504.00
2022-11-19T11:07:16.751Z,524.00
2022-11-19T11:08:16.709Z,556.00
2022-11-19T11:09:16.714Z,572.00
2022-11-19T11:10:16.666Z,600.00
2022-11-19T11:11:16.646Z,612.00
2022-11-19T11:12:16.623Z,624.00
2022-11-19T11:13:16.603Z,640.00
2022-11-19T11:14:16.578Z,656.00
2022-11-19T11:15:16.559Z,684.00
2022-11-19T11:16:16.538Z,664.00
2022-11-19T11:17:16.513Z,588.00
2022-11-19T11:18:16.490Z,528.00
2022-11-19T11:19:16.489Z,516.00
2022-11-19T11:20:16.449Z,496.00
2022-11-19T11:21:16.426Z,472.00
2022-11-19T11:22:16.406Z,452.00
2022-11-19T11:23:16.382Z,432.00
2022-11-19T11:24:16.364Z,408.00
2022-11-19T11:25:16.340Z,388.00
2022-11-19T11:26:16.316Z,380.00
2022-11-19T11:27:16.298Z,376.00
2022-11-19T11:28:16.276Z,396.00
2022-11-19T11:29:16.254Z,412.00
2022-11-19T11:30:16.249Z,436.00
2022-11-19T11:31:16.213Z,464.00
2022-11-19T11:32:16.189Z,488.00
2022-11-19T11:33:16.166Z,500.00
2022-11-19T11:34:16.142Z,492.00
2022-11-19T11:35:16.357Z,460.00
2022-11-19T11:36:16.099Z,416.00
2022-11-19T11:37:16.079Z,380.00
2022-11-19T11:38:16.057Z,348.00
2022-11-19T11:39:16.037Z,328.00
2022-11-19T11:40:16.017Z,312.00
2022-11-19T11:42:04.193Z,316.00
2022-11-19T11:42:17.885Z,328.00
2022-11-19T11:43:15.949Z,344.00
2022-11-19T11:44:15.929Z,360.00
2022-11-19T11:45:15.921Z,364.00
2022-11-19T11:46:15.884Z,364.00
2022-11-19T11:47:15.862Z,356.00
2022-11-19T11:48:15.842Z,352.00
2022-11-19T11:49:15.818Z,348.00
2022-11-19T11:50:15.800Z,344.00
2022-11-19T11:51:15.775Z,340.00
2022-11-19T11:52:15.754Z,356.00
2022-11-19T11:53:15.734Z,348.00
2022-11-19T11:54:18.115Z,328.00
2022-11-19T11:55:15.693Z,312.00
2022-11-19T11:56:15.671Z,304.00
2022-11-19T11:57:15.646Z,332.00
2022-11-19T11:58:15.625Z,376.00
2022-11-19T11:59:15.603Z,416.00
2022-11-19T12:00:15.584Z,452.00
2022-11-19T12:01:16.132Z,500.00
2022-11-19T12:02:15.563Z,536.00
2022-11-19T12:03:15.517Z,564.00
2022-11-19T12:04:15.495Z,608.00
2022-11-19T12:05:15.474Z,644.00
2022-11-19T12:06:15.455Z,644.00
2022-11-19T12:07:15.518Z,628.00
2022-11-19T12:08:15.411Z,616.00
2022-11-19T12:09:15.391Z,620.00
2022-11-19T12:10:15.375Z,596.00
2022-11-19T12:11:15.347Z,552.00
2022-11-19T12:12:15.323Z,520.00
2022-11-19T12:13:15.300Z,512.00
2022-11-19T12:14:15.282Z,508.00
2022-11-19T12:15:15.260Z,500.00
2022-11-19T12:16:15.244Z,480.00
2022-11-19T12:17:15.217Z,460.00
2022-11-19T12:18:15.195Z,436.00
2022-11-19T12:19:19.290Z,420.00
2022-11-19T12:20:22.333Z,408.00
2022-11-19T12:22:19.124Z,400.00
2022-11-19T12:23:19.086Z,396.00
2022-11-19T12:25:23.027Z,368.00
2022-11-19T12:26:22.999Z,368.00
2022-11-19T12:28:26.950Z,320.00
2022-11-19T12:29:26.911Z,320.00
2022-11-19T12:31:30.853Z,304.00
2022-11-19T12:32:30.826Z,308.00
2022-11-19T12:34:34.789Z,320.00
2022-11-19T12:35:34.747Z,328.00
2022-11-19T12:37:38.783Z,372.00
2022-11-19T12:38:38.708Z,376.00
2022-11-19T12:40:39.006Z,356.00
2022-11-19T12:41:31.518Z,344.00
2022-11-19T12:43:35.467Z,312.00
2022-11-19T12:44:35.426Z,304.00
2022-11-19T12:46:39.372Z,312.00
2022-11-19T12:47:44.563Z,316.00
2022-11-19T12:49:43.302Z,332.00
2022-11-19T12:50:43.262Z,340.00
2022-11-19T12:52:47.217Z,332.00
2022-11-19T12:53:47.177Z,320.00
2022-11-19T12:55:51.121Z,316.00
2022-11-19T12:56:51.088Z,320.00
2022-11-19T12:58:55.037Z,332.00
2022-11-19T12:59:55.000Z,344.00
2022-11-19T13:01:58.926Z,356.00
2022-11-19T13:02:58.900Z,364.00
2022-11-19T13:05:02.858Z,392.00
2022-11-19T13:06:02.816Z,408.00
2022-11-19T13:08:06.778Z,452.00
2022-11-19T13:09:06.729Z,472.00
2022-11-19T13:10:59.609Z,524.00
2022-11-19T13:11:59.576Z,560.00
2022-11-19T13:14:03.539Z,584.00
2022-11-19T13:15:03.502Z,556.00
2022-11-19T13:17:07.440Z,484.00
2022-11-19T13:18:07.410Z,448.00